createdAt,value
2024-01-11T00:01:57.373Z,3.90
2024-01-11T00:04:06.211Z,4.00
2024-01-11T00:06:15.418Z,4.30
2024-01-11T00:08:24.338Z,5.20
2024-01-11T00:10:32.906Z,5.00
2024-01-11T00:12:41.692Z,3.40
2024-01-11T00:14:50.445Z,4.80
2024-01-11T00:16:59.197Z,2.00
2024-01-11T00:19:08.168Z,3.10
2024-01-11T00:21:16.875Z,4.90
2024-01-11T00:23:25.706Z,4.90
2024-01-11T00:25:34.356Z,4.60
2024-01-11T00:27:43.213Z,4.50
2024-01-11T00:29:52.054Z,5.10
2024-01-11T00:32:00.874Z,4.20
2024-01-11T00:34:09.983Z,5.00
2024-01-11T00:36:22.793Z,4.30
2024-01-11T00:38:31.681Z,4.40
2024-01-11T00:40:40.413Z,4.60
2024-01-11T00:42:49.220Z,3.10
2024-01-11T00:44:57.921Z,4.80
2024-01-11T00:47:07.090Z,4.60
2024-01-11T00:49:15.865Z,5.80
2024-01-11T00:51:24.766Z,6.00
2024-01-11T00:53:34.686Z,5.50
2024-01-11T00:55:43.578Z,6.10
2024-01-11T00:57:52.863Z,4.50
2024-01-11T01:00:01.782Z,4.50
2024-01-11T01:02:10.732Z,4.20
2024-01-11T01:04:19.788Z,6.00
2024-01-11T01:06:28.832Z,3.80
2024-01-11T01:08:37.955Z,4.40
2024-01-11T01:10:46.628Z,4.80
2024-01-11T01:12:55.477Z,6.40
2024-01-11T01:15:04.437Z,3.90
2024-01-11T01:17:16.063Z,3.80
2024-01-11T01:19:25.622Z,6.30
2024-01-11T01:21:34.390Z,5.00
2024-01-11T01:23:43.288Z,5.00
2024-01-11T01:25:52.601Z,5.00
2024-01-11T01:28:02.130Z,5.00
2024-01-11T01:30:12.188Z,4.30
2024-01-11T01:32:21.030Z,4.90
2024-01-11T01:34:30.021Z,5.70
2024-01-11T01:36:38.982Z,4.20
2024-01-11T01:38:47.908Z,6.30
2024-01-11T01:40:56.625Z,6.50
2024-01-11T01:43:09.111Z,6.30
2024-01-11T01:45:19.515Z,6.20
2024-01-11T01:47:29.261Z,6.00
2024-01-11T01:49:38.642Z,6.10
2024-01-11T01:51:47.521Z,5.40
2024-01-11T01:53:59.185Z,6.60
2024-01-11T01:56:09.887Z,5.60
2024-01-11T01:58:20.146Z,3.30
2024-01-11T02:00:29.503Z,6.60
2024-01-11T02:02:40.569Z,6.60
2024-01-11T02:04:49.811Z,6.20
2024-01-11T02:07:00.259Z,5.10
2024-01-11T02:09:10.938Z,2.60
2024-01-11T02:11:20.314Z,5.30
2024-01-11T02:13:29.692Z,6.10
2024-01-11T02:15:39.182Z,7.00
2024-01-11T02:17:48.119Z,5.70
2024-01-11T02:19:57.043Z,4.90
2024-01-11T02:22:13.166Z,3.50
2024-01-11T02:24:22.203Z,5.00
2024-01-11T02:26:30.927Z,4.00
2024-01-11T02:28:39.762Z,4.90
2024-01-11T02:30:48.635Z,5.70
2024-01-11T02:32:58.607Z,3.30
2024-01-11T02:35:08.930Z,4.70
2024-01-11T02:37:17.680Z,5.60
2024-01-11T02:39:27.392Z,2.30
2024-01-11T02:41:37.853Z,4.20
2024-01-11T02:43:50.994Z,5.20
2024-01-11T02:46:00.527Z,5.80
2024-01-11T02:48:10.314Z,4.70
2024-01-11T02:50:19.177Z,3.80
2024-01-11T02:52:28.166Z,6.30
2024-01-11T02:54:37.061Z,4.00
2024-01-11T02:56:45.808Z,4.30
2024-01-11T02:58:54.954Z,5.10
2024-01-11T03:01:03.908Z,8.60
2024-01-11T03:03:12.959Z,4.30
2024-01-11T03:05:21.894Z,3.60
2024-01-11T03:07:31.599Z,5.00
2024-01-11T03:09:40.636Z,4.90
2024-01-11T03:11:49.381Z,5.50
2024-01-11T03:13:58.078Z,4.20
2024-01-11T03:16:08.770Z,4.50
2024-01-11T03:18:17.761Z,4.70
2024-01-11T03:20:26.841Z,5.00
2024-01-11T03:22:35.644Z,6.50
2024-01-11T03:24:44.393Z,4.30
2024-01-11T03:26:53.252Z,4.30
2024-01-11T03:29:01.986Z,6.50
2024-01-11T03:35:31.615Z,4.10
2024-01-11T03:37:40.501Z,7.20
2024-01-11T03:39:49.368Z,5.60
2024-01-11T03:41:58.220Z,5.00
2024-01-11T03:44:07.648Z,4.70
2024-01-11T03:46:16.557Z,5.70
2024-01-11T03:48:25.424Z,3.50
2024-01-11T03:50:34.283Z,3.70
2024-01-11T03:52:43.046Z,4.60
2024-01-11T03:54:52.016Z,7.10
2024-01-11T03:57:00.715Z,4.30
2024-01-11T03:59:09.778Z,5.20
2024-01-11T04:01:18.926Z,7.80
2024-01-11T04:03:27.746Z,4.10
2024-01-11T04:05:36.696Z,4.90
2024-01-11T04:07:45.627Z,5.80
2024-01-11T04:09:54.387Z,5.00
2024-01-11T04:12:04.845Z,4.40
2024-01-11T04:14:13.765Z,6.60
2024-01-11T04:16:23.071Z,3.80
2024-01-11T04:18:31.976Z,5.10
2024-01-11T04:20:40.849Z,6.50
2024-01-11T04:22:49.689Z,7.10
2024-01-11T04:24:58.422Z,5.20
2024-01-11T04:27:07.358Z,9.10
2024-01-11T04:29:16.315Z,4.70
2024-01-11T04:31:25.429Z,5.00
2024-01-11T04:33:34.463Z,3.50
2024-01-11T04:35:43.570Z,6.30
2024-01-11T04:37:52.487Z,5.60
2024-01-11T04:40:01.527Z,4.70
2024-01-11T04:42:10.381Z,4.70
2024-01-11T04:44:19.189Z,5.40
2024-01-11T04:46:28.085Z,6.10
2024-01-11T04:48:37.000Z,5.20
2024-01-11T04:50:46.853Z,4.90
2024-01-11T04:52:55.652Z,6.70
2024-01-11T04:55:04.697Z,4.50
2024-01-11T04:57:13.570Z,5.70
2024-01-11T04:59:22.498Z,6.50
2024-01-11T05:01:31.439Z,5.80
2024-01-11T05:03:40.385Z,7.50
2024-01-11T05:05:49.330Z,8.80
2024-01-11T05:07:58.366Z,5.30
2024-01-11T05:10:08.211Z,6.30
2024-01-11T05:12:17.503Z,5.70
2024-01-11T05:14:26.407Z,5.70
2024-01-11T05:16:36.794Z,6.00
2024-01-11T05:18:45.691Z,6.50
2024-01-11T05:20:54.588Z,5.20
2024-01-11T05:23:03.314Z,7.20
2024-01-11T05:25:12.470Z,6.30
2024-01-11T05:27:21.117Z,6.60
2024-01-11T05:29:29.997Z,2.90
2024-01-11T05:31:39.229Z,4.50
2024-01-11T05:33:48.834Z,5.40
2024-01-11T05:35:58.432Z,7.10
2024-01-11T05:38:07.540Z,6.40
2024-01-11T05:40:16.692Z,6.00
2024-01-11T05:42:25.791Z,6.90
2024-01-11T05:44:34.837Z,7.50
2024-01-11T05:46:43.527Z,5.20
2024-01-11T05:48:52.300Z,4.90
2024-01-11T05:51:01.089Z,4.50
2024-01-11T05:53:09.920Z,4.70
2024-01-11T05:55:19.242Z,5.00
2024-01-11T05:57:28.051Z,6.20
2024-01-11T05:59:36.868Z,4.50
2024-01-11T06:01:48.771Z,6.80
2024-01-11T06:03:57.599Z,4.60
2024-01-11T06:06:08.361Z,3.70
2024-01-11T06:08:18.323Z,5.50
2024-01-11T06:10:26.940Z,4.90
2024-01-11T06:12:35.664Z,3.90
2024-01-11T06:14:44.331Z,4.90
2024-01-11T06:16:52.951Z,5.20
2024-01-11T06:19:01.966Z,6.00
2024-01-11T06:21:10.598Z,6.00
2024-01-11T06:23:20.907Z,7.70
2024-01-11T06:25:29.630Z,7.60
2024-01-11T06:27:38.281Z,5.30
2024-01-11T06:29:47.113Z,5.70
2024-01-11T06:31:55.856Z,7.00
2024-01-11T06:34:04.641Z,3.60
2024-01-11T06:36:13.321Z,6.40
2024-01-11T06:38:21.953Z,5.80
2024-01-11T06:40:30.543Z,6.40
2024-01-11T06:42:39.179Z,7.30
2024-01-11T06:44:48.188Z,6.40
2024-01-11T06:46:56.856Z,5.50
2024-01-11T06:49:05.591Z,7.70
2024-01-11T06:51:16.629Z,8.70
2024-01-11T06:53:25.559Z,11.60
2024-01-11T06:55:34.481Z,7.40
2024-01-11T06:57:43.037Z,4.60
2024-01-11T06:59:52.269Z,5.70
2024-01-11T07:02:01.071Z,4.10
2024-01-11T07:04:09.993Z,6.40
2024-01-11T07:06:19.093Z,7.90
2024-01-11T07:08:27.910Z,8.70
2024-01-11T07:10:36.654Z,8.30
2024-01-11T07:12:47.057Z,5.20
2024-01-11T07:14:55.737Z,5.60
2024-01-11T07:17:05.377Z,3.90
2024-01-11T07:19:14.524Z,6.40
2024-01-11T07:21:31.189Z,9.50
2024-01-11T07:23:40.269Z,6.00
2024-01-11T07:25:49.200Z,7.40
2024-01-11T07:27:57.981Z,7.50
2024-01-11T07:30:08.096Z,5.20
2024-01-11T07:32:16.999Z,7.80
2024-01-11T07:34:26.258Z,6.50
2024-01-11T07:36:35.073Z,7.60
2024-01-11T07:38:43.703Z,5.70
2024-01-11T07:40:52.611Z,13.80
2024-01-11T07:43:01.379Z,5.40
2024-01-11T07:45:12.477Z,6.50
2024-01-11T07:47:21.101Z,8.50
2024-01-11T07:49:29.851Z,6.60
2024-01-11T07:51:40.221Z,4.80
2024-01-11T07:53:49.087Z,4.10
2024-01-11T07:55:57.972Z,5.00
2024-01-11T07:58:06.936Z,5.90
2024-01-11T08:00:16.577Z,6.30
2024-01-11T08:02:25.621Z,8.30
2024-01-11T08:04:34.813Z,5.50
2024-01-11T08:06:43.749Z,5.70
2024-01-11T08:08:54.259Z,6.50
2024-01-11T08:11:03.558Z,7.00
2024-01-11T08:13:14.192Z,5.40
2024-01-11T08:15:23.097Z,6.30
2024-01-11T08:17:31.988Z,8.20
2024-01-11T08:19:41.135Z,8.00
2024-01-11T08:21:49.914Z,6.10
2024-01-11T08:24:01.932Z,6.80
2024-01-11T08:26:12.452Z,9.70
2024-01-11T08:28:21.947Z,6.80
2024-01-11T08:30:31.097Z,7.20
2024-01-11T08:32:41.103Z,7.30
2024-01-11T08:34:50.114Z,5.30
2024-01-11T08:36:59.378Z,7.90
2024-01-11T08:39:08.589Z,11.70
2024-01-11T08:41:17.219Z,5.30
2024-01-11T08:43:26.062Z,6.90
2024-01-11T08:45:34.795Z,7.80
2024-01-11T08:47:43.596Z,4.90
2024-01-11T08:49:52.589Z,7.80
2024-01-11T08:52:01.244Z,6.90
2024-01-11T08:54:12.641Z,7.80
2024-01-11T08:56:21.547Z,7.90
2024-01-11T08:58:30.386Z,6.50
2024-01-11T09:00:39.642Z,5.90
2024-01-11T09:02:49.509Z,7.60
2024-01-11T09:04:58.358Z,6.30
2024-01-11T09:07:07.352Z,4.70
2024-01-11T09:09:16.762Z,7.60
2024-01-11T09:11:25.407Z,4.90
2024-01-11T09:13:33.989Z,7.00
2024-01-11T09:15:42.921Z,6.90
2024-01-11T09:17:52.001Z,8.70
2024-01-11T09:20:01.148Z,6.00
2024-01-11T09:22:11.511Z,8.00
2024-01-11T09:24:20.778Z,5.10
2024-01-11T09:26:29.669Z,6.90
2024-01-11T09:28:38.393Z,7.70
2024-01-11T09:30:47.281Z,9.20
2024-01-11T09:32:57.073Z,5.70
2024-01-11T09:35:06.926Z,6.60
2024-01-11T09:37:15.724Z,5.90
2024-01-11T09:39:24.868Z,10.30
2024-01-11T09:41:35.288Z,3.70
2024-01-11T09:43:44.761Z,7.70
2024-01-11T09:45:55.147Z,6.80
2024-01-11T09:48:04.449Z,6.80
2024-01-11T09:50:18.758Z,5.80
2024-01-11T09:52:34.355Z,4.00
2024-01-11T09:54:46.917Z,4.90
2024-01-11T09:57:00.576Z,5.80
2024-01-11T09:59:11.947Z,6.40
2024-01-11T10:01:23.249Z,4.40
2024-01-11T10:03:32.679Z,7.20
2024-01-11T10:05:43.054Z,5.70
2024-01-11T10:07:52.035Z,4.00
2024-01-11T10:10:01.604Z,4.40
2024-01-11T10:12:11.618Z,5.70
2024-01-11T10:14:20.415Z,4.40
2024-01-11T10:16:30.019Z,4.30
2024-01-11T10:18:39.234Z,4.70
2024-01-11T10:20:50.544Z,5.90
2024-01-11T10:23:00.777Z,5.50
2024-01-11T10:25:17.152Z,6.30
2024-01-11T10:27:30.117Z,6.90
2024-01-11T10:29:39.369Z,6.00
2024-01-11T10:31:48.060Z,5.10
2024-01-11T10:33:59.554Z,5.70
2024-01-11T10:36:11.267Z,7.40
2024-01-11T10:38:20.681Z,4.90
2024-01-11T10:40:31.045Z,5.10
2024-01-11T10:42:42.221Z,5.40
2024-01-11T10:44:57.181Z,2.80
2024-01-11T10:47:08.770Z,5.80
2024-01-11T10:49:21.308Z,6.20
2024-01-11T10:51:34.588Z,7.40
2024-01-11T10:53:47.515Z,6.30
2024-01-11T10:56:13.688Z,5.40
2024-01-11T10:58:24.624Z,7.10
2024-01-11T11:00:33.838Z,7.20
2024-01-11T11:02:44.272Z,5.50
2024-01-11T11:04:57.306Z,4.80
2024-01-11T11:07:08.541Z,4.90
2024-01-11T11:09:18.846Z,7.00
2024-01-11T11:11:28.082Z,5.20
2024-01-11T11:13:38.102Z,7.90
2024-01-11T11:15:50.109Z,7.50
2024-01-11T11:18:00.396Z,8.60
2024-01-11T11:20:13.232Z,5.00
2024-01-11T11:22:21.942Z,7.20
2024-01-11T11:24:30.930Z,5.40
2024-01-11T11:26:39.495Z,8.60
2024-01-11T11:28:49.612Z,8.20
2024-01-11T11:31:04.271Z,6.70
2024-01-11T11:33:14.045Z,7.40
2024-01-11T11:35:24.998Z,7.70
2024-01-11T11:37:34.275Z,5.80
2024-01-11T11:39:44.077Z,6.30
2024-01-11T11:41:53.999Z,4.70
2024-01-11T11:44:06.659Z,7.20
2024-01-11T11:46:16.396Z,5.10
2024-01-11T11:48:55.903Z,4.70
2024-01-11T11:51:11.473Z,7.30
2024-01-11T11:53:20.922Z,5.60
2024-01-11T11:55:29.641Z,7.10
2024-01-11T11:57:38.892Z,5.70
2024-01-11T11:59:47.925Z,7.90
2024-01-11T12:01:56.863Z,4.10
2024-01-11T12:04:05.545Z,12.80
2024-01-11T12:06:16.069Z,4.10
2024-01-11T12:08:25.317Z,4.60
2024-01-11T12:10:34.360Z,4.00
2024-01-11T12:12:43.282Z,4.30
2024-01-11T12:14:52.271Z,3.90
2024-01-11T12:17:01.622Z,4.60
2024-01-11T12:19:11.113Z,4.80
2024-01-11T12:21:19.762Z,4.70
2024-01-11T12:23:31.252Z,4.30
2024-01-11T12:25:40.860Z,5.50
2024-01-11T12:27:50.232Z,4.40
2024-01-11T12:29:59.902Z,2.90
2024-01-11T12:32:13.295Z,5.40
2024-01-11T12:34:22.485Z,6.00
2024-01-11T12:36:32.641Z,4.30
2024-01-11T12:38:51.969Z,4.60
2024-01-11T12:41:02.730Z,4.50
2024-01-11T12:43:13.732Z,5.60
2024-01-11T12:45:23.655Z,6.90
2024-01-11T12:47:32.298Z,9.60
2024-01-11T12:49:45.993Z,6.80
2024-01-11T12:51:56.147Z,6.70
2024-01-11T12:54:08.570Z,6.50
2024-01-11T12:56:18.544Z,6.10
2024-01-11T12:58:28.073Z,6.00
2024-01-11T13:00:37.665Z,6.10
2024-01-11T13:02:47.714Z,6.50
2024-01-11T13:04:57.039Z,9.20
2024-01-11T13:07:06.311Z,7.20
2024-01-11T13:09:15.640Z,9.30
2024-01-11T13:11:25.681Z,9.00
2024-01-11T13:13:34.479Z,7.50
2024-01-11T13:15:43.362Z,7.80
2024-01-11T13:17:52.304Z,6.50
2024-01-11T13:20:02.696Z,7.50
2024-01-11T13:22:11.469Z,6.70
2024-01-11T13:24:20.024Z,11.00
2024-01-11T13:26:28.850Z,12.40
2024-01-11T13:28:37.886Z,8.30
2024-01-11T13:30:47.972Z,6.60
2024-01-11T13:32:56.796Z,10.90
2024-01-11T13:35:06.934Z,6.00
2024-01-11T13:37:16.692Z,4.90
2024-01-11T13:39:26.730Z,7.60
2024-01-11T13:41:35.625Z,5.80
2024-01-11T13:43:44.557Z,7.00
2024-01-11T13:45:53.456Z,5.50
2024-01-11T13:48:03.202Z,6.90
2024-01-11T13:50:13.925Z,6.50
2024-01-11T13:52:22.876Z,8.90
2024-01-11T13:54:31.664Z,9.00
2024-01-11T13:56:40.578Z,7.50
2024-01-11T13:58:49.345Z,6.70
2024-01-11T14:00:58.704Z,6.00
2024-01-11T14:03:10.093Z,6.40
2024-01-11T14:05:19.933Z,5.20
2024-01-11T14:07:28.809Z,4.70
2024-01-11T14:09:37.448Z,4.90
2024-01-11T14:11:46.203Z,8.50
2024-01-11T14:13:57.212Z,7.30
2024-01-11T14:16:06.614Z,5.30
2024-01-11T14:18:15.538Z,6.30
2024-01-11T14:20:25.031Z,10.00
2024-01-11T14:22:33.748Z,7.90
2024-01-11T14:24:42.677Z,8.40
2024-01-11T14:26:51.717Z,6.90
2024-01-11T14:29:00.476Z,21.30
2024-01-11T14:31:09.394Z,13.30
2024-01-11T14:33:18.906Z,11.30
2024-01-11T14:35:28.031Z,18.20
2024-01-11T14:37:37.718Z,18.60
2024-01-11T14:39:46.408Z,11.20
2024-01-11T14:41:56.530Z,6.70
2024-01-11T14:44:05.282Z,8.70
2024-01-11T14:46:14.572Z,29.10
2024-01-11T14:48:24.864Z,13.90
2024-01-11T14:50:33.986Z,10.10
2024-01-11T14:52:44.052Z,16.80
2024-01-11T14:54:55.899Z,12.30
2024-01-11T14:57:06.198Z,17.50
2024-01-11T14:59:15.461Z,22.10
2024-01-11T15:01:24.561Z,18.60
2024-01-11T15:03:33.373Z,11.10
2024-01-11T15:05:42.285Z,9.60
2024-01-11T15:07:51.404Z,9.10
2024-01-11T15:10:00.370Z,5.90
2024-01-11T15:12:10.227Z,5.00
2024-01-11T15:14:18.781Z,6.00
2024-01-11T15:16:27.561Z,3.70
2024-01-11T15:18:36.284Z,6.80
2024-01-11T15:20:45.146Z,17.00
2024-01-11T15:22:53.661Z,7.40
2024-01-11T15:25:02.552Z,6.40
2024-01-11T15:27:11.666Z,38.40
2024-01-11T15:29:20.887Z,9.90
2024-01-11T15:31:32.494Z,7.00
2024-01-11T15:33:41.573Z,7.10
2024-01-11T15:35:50.518Z,18.20
2024-01-11T15:37:59.286Z,12.60
2024-01-11T15:40:10.128Z,6.50
2024-01-11T15:42:18.661Z,4.80
2024-01-11T15:44:29.077Z,7.90
2024-01-11T15:46:39.645Z,3.60
2024-01-11T15:48:48.269Z,6.50
2024-01-11T15:50:58.685Z,8.80
2024-01-11T15:53:08.376Z,9.00
2024-01-11T15:55:18.002Z,8.40
2024-01-11T15:57:26.561Z,6.20
2024-01-11T15:59:35.312Z,4.40
2024-01-11T16:01:51.747Z,6.80
2024-01-11T16:04:09.306Z,5.40
2024-01-11T16:06:19.168Z,4.00
2024-01-11T16:08:27.881Z,4.10
2024-01-11T16:10:36.496Z,5.00
2024-01-11T16:12:45.357Z,4.60
2024-01-11T16:14:55.180Z,4.50
2024-01-11T16:17:04.291Z,4.70
2024-01-11T16:19:13.350Z,7.80
2024-01-11T16:21:22.045Z,3.70
2024-01-11T16:23:30.663Z,4.80
2024-01-11T16:25:39.224Z,6.30
2024-01-11T16:27:48.187Z,4.00
2024-01-11T16:29:58.029Z,5.10
2024-01-11T16:32:07.825Z,4.50
2024-01-11T16:34:16.516Z,4.00
2024-01-11T16:36:25.480Z,7.70
2024-01-11T16:38:36.999Z,9.40
2024-01-11T16:40:45.684Z,6.70
2024-01-11T16:42:54.298Z,5.90
2024-01-11T16:45:05.770Z,46.10
2024-01-11T16:47:14.391Z,51.90
2024-01-11T16:49:24.684Z,47.20
2024-01-11T16:51:33.952Z,19.00
2024-01-11T16:53:47.372Z,20.10
2024-01-11T16:55:56.467Z,21.90
2024-01-11T16:58:05.948Z,20.20
2024-01-11T17:00:17.269Z,10.60
2024-01-11T17:02:29.050Z,17.70
2024-01-11T17:04:37.760Z,32.80
2024-01-11T17:06:46.439Z,42.20
2024-01-11T17:09:12.691Z,30.10
2024-01-11T17:11:21.813Z,14.80
2024-01-11T17:13:30.517Z,29.30
2024-01-11T17:15:39.642Z,11.60
2024-01-11T17:17:48.641Z,18.90
2024-01-11T17:19:57.523Z,13.00
2024-01-11T17:22:06.461Z,13.20
2024-01-11T17:24:15.311Z,15.50
2024-01-11T17:26:24.418Z,16.40
2024-01-11T17:28:33.009Z,15.60
2024-01-11T17:30:41.633Z,13.10
2024-01-11T17:32:50.251Z,9.60
2024-01-11T17:34:59.348Z,9.60
2024-01-11T17:37:08.216Z,13.20
2024-01-11T17:39:16.758Z,3.80
2024-01-11T17:41:26.242Z,7.60
2024-01-11T17:43:36.534Z,7.00
2024-01-11T17:45:45.772Z,5.30
2024-01-11T17:47:54.993Z,4.20
2024-01-11T17:50:03.963Z,5.60
2024-01-11T17:52:13.322Z,5.80
2024-01-11T17:54:21.832Z,5.80
2024-01-11T17:56:31.737Z,7.70
2024-01-11T17:58:40.618Z,5.70
2024-01-11T18:00:49.172Z,8.40
2024-01-11T18:02:57.801Z,7.00
2024-01-11T18:05:16.653Z,5.00
2024-01-11T18:07:33.364Z,5.70
2024-01-11T18:09:41.937Z,8.50
2024-01-11T18:11:52.458Z,7.80
2024-01-11T18:14:01.545Z,7.20
2024-01-11T18:16:10.223Z,7.60
2024-01-11T18:18:18.837Z,7.10
2024-01-11T18:20:27.514Z,5.80
2024-01-11T18:22:36.426Z,4.00
2024-01-11T18:24:46.590Z,4.30
2024-01-11T18:26:55.634Z,4.20
2024-01-11T18:29:04.520Z,4.00
2024-01-11T18:31:17.456Z,5.30
2024-01-11T18:33:28.162Z,4.70
2024-01-11T18:35:38.520Z,5.70
2024-01-11T18:37:49.168Z,4.30
2024-01-11T18:39:58.516Z,3.30
2024-01-11T18:42:14.416Z,6.60
2024-01-11T18:44:25.752Z,5.90
2024-01-11T18:46:39.118Z,3.80
2024-01-11T18:48:49.878Z,4.50
2024-01-11T18:51:01.279Z,3.90
2024-01-11T18:53:09.933Z,4.80
2024-01-11T18:55:19.176Z,3.70
2024-01-11T18:57:27.791Z,1.80
2024-01-11T18:59:36.444Z,3.70
2024-01-11T19:01:49.814Z,4.80
2024-01-11T19:03:59.615Z,5.10
2024-01-11T19:06:10.192Z,6.10
2024-01-11T19:08:19.184Z,27.60
2024-01-11T19:10:28.930Z,17.80
2024-01-11T19:12:37.923Z,8.80
2024-01-11T19:14:46.854Z,61.60
2024-01-11T19:16:55.701Z,20.80
2024-01-11T19:19:05.569Z,9.60
2024-01-11T19:21:17.284Z,12.50
2024-01-11T19:23:41.244Z,6.60
2024-01-11T19:28:00.999Z,6.80
2024-01-11T19:30:11.888Z,12.10
2024-01-11T19:32:22.228Z,52.70
2024-01-11T19:34:31.008Z,32.50
2024-01-11T19:36:44.366Z,19.80
2024-01-11T19:39:02.141Z,10.60
2024-01-11T19:41:11.337Z,7.50
2024-01-11T19:43:20.376Z,8.30
2024-01-11T19:45:29.578Z,9.60
2024-01-11T19:49:50.532Z,14.50
2024-01-11T19:51:59.282Z,19.90
2024-01-11T19:54:08.458Z,12.00
2024-01-11T19:56:21.790Z,9.60
2024-01-11T19:58:30.767Z,7.10
2024-01-11T20:00:42.692Z,9.30
2024-01-11T20:02:52.226Z,3.60
2024-01-11T20:05:01.981Z,8.10
2024-01-11T20:07:10.652Z,5.40
2024-01-11T20:09:21.329Z,5.00
2024-01-11T20:11:35.590Z,6.10
2024-01-11T20:13:45.622Z,7.60
2024-01-11T20:15:54.474Z,12.10
2024-01-11T20:18:09.708Z,9.10
2024-01-11T20:20:19.798Z,4.50
2024-01-11T20:22:29.537Z,10.60
2024-01-11T20:24:43.649Z,8.40
2024-01-11T20:27:05.700Z,8.60
2024-01-11T20:29:15.660Z,10.30
2024-01-11T20:31:27.558Z,10.70
2024-01-11T20:33:39.827Z,8.60
2024-01-11T20:35:52.411Z,5.80
2024-01-11T20:38:02.092Z,5.60
2024-01-11T20:40:16.547Z,6.10
2024-01-11T20:42:26.974Z,7.50
2024-01-11T20:44:37.758Z,4.70
2024-01-11T20:46:50.497Z,4.70
2024-01-11T20:49:05.202Z,6.00
2024-01-11T20:51:19.214Z,4.30
2024-01-11T20:53:28.067Z,3.10
2024-01-11T20:55:36.726Z,4.90
2024-01-11T20:57:47.741Z,4.70
2024-01-11T21:00:02.235Z,3.90
2024-01-11T21:02:11.999Z,4.90
2024-01-11T21:04:22.481Z,4.50
2024-01-11T21:06:33.004Z,5.70
2024-01-11T21:08:41.847Z,4.70
2024-01-11T21:10:50.433Z,3.30
2024-01-11T21:12:59.114Z,4.70
2024-01-11T21:15:09.610Z,6.30
2024-01-11T21:17:20.455Z,4.80
2024-01-11T21:19:29.716Z,5.10
2024-01-11T21:21:48.831Z,6.10
2024-01-11T21:24:00.849Z,6.70
2024-01-11T21:26:10.409Z,8.40
2024-01-11T21:28:19.327Z,4.80
2024-01-11T21:30:28.151Z,4.00
2024-01-11T21:32:36.936Z,4.40
2024-01-11T21:34:45.968Z,4.20
2024-01-11T21:36:54.695Z,4.40
2024-01-11T21:39:04.205Z,2.50
2024-01-11T21:41:13.227Z,5.70
2024-01-11T21:43:23.104Z,5.30
2024-01-11T21:45:31.746Z,5.70
2024-01-11T21:47:40.526Z,8.80
2024-01-11T21:49:49.426Z,3.50
2024-01-11T21:51:58.006Z,5.50
2024-01-11T21:54:07.068Z,6.30
2024-01-11T21:56:16.014Z,5.90
2024-01-11T21:58:25.577Z,6.60
2024-01-11T22:00:35.809Z,5.60
2024-01-11T22:02:44.687Z,6.60
2024-01-11T22:04:53.802Z,4.60
2024-01-11T22:07:02.372Z,6.10
2024-01-11T22:09:11.504Z,3.30
2024-01-11T22:11:21.633Z,3.80
2024-01-11T22:13:31.570Z,9.50
2024-01-11T22:15:40.433Z,6.60
2024-01-11T22:17:49.169Z,5.30
2024-01-11T22:19:57.903Z,3.50
2024-01-11T22:22:08.245Z,5.10
2024-01-11T22:24:17.796Z,7.80
2024-01-11T22:26:27.832Z,9.60
2024-01-11T22:28:36.652Z,13.60
2024-01-11T22:30:45.346Z,14.90
2024-01-11T22:32:54.235Z,21.70
2024-01-11T22:35:04.572Z,15.90
2024-01-11T22:37:13.358Z,12.10
2024-01-11T22:39:21.949Z,12.50
2024-01-11T22:41:31.139Z,9.90
2024-01-11T22:43:40.092Z,17.80
2024-01-11T22:45:48.838Z,22.50
2024-01-11T22:47:57.484Z,21.00
2024-01-11T22:50:06.669Z,20.20
2024-01-11T22:52:15.244Z,15.80
2024-01-11T22:54:23.842Z,15.30
2024-01-11T22:56:36.249Z,26.60
2024-01-11T22:58:44.920Z,23.60
2024-01-11T23:00:54.345Z,24.00
2024-01-11T23:03:03.049Z,9.40
2024-01-11T23:05:12.230Z,4.30
2024-01-11T23:07:20.914Z,3.10
2024-01-11T23:13:48.969Z,4.90
2024-01-11T23:15:57.730Z,5.10
2024-01-11T23:18:07.285Z,4.70
2024-01-11T23:20:17.259Z,7.80
2024-01-11T23:22:25.965Z,10.90
2024-01-11T23:24:34.498Z,6.20
2024-01-11T23:26:43.077Z,7.60
2024-01-11T23:28:51.672Z,7.90
2024-01-11T23:31:00.543Z,5.80
2024-01-11T23:33:11.365Z,4.80
2024-01-11T23:35:20.320Z,3.90
2024-01-11T23:37:28.917Z,7.20
2024-01-11T23:39:37.842Z,5.20
2024-01-11T23:41:46.398Z,6.60
2024-01-11T23:43:55.535Z,4.00
2024-01-11T23:46:04.663Z,5.00
2024-01-11T23:48:13.322Z,4.40
2024-01-11T23:50:22.514Z,7.30
2024-01-11T23:52:31.469Z,6.70
2024-01-11T23:54:40.046Z,4.40
2024-01-11T23:56:48.678Z,3.80
2024-01-11T23:59:02.127Z,5.70
